Time;durP1;ratioP1;P1;durP2;ratioP2;P2;SDS_P1;SDS_P2;PMS_P1;PMS_P2;Temp;Humidity;BMP_temperature;BMP_pressure;BME280_temperature;BME280_humidity;BME280_pressure;Samples;Min_cycle;Max_cycle;Signal;HPM_P1;HPM_P2
2024/04/03 07:07:04;;;;;;;3.75;1.50;;;;;;;;;;12694360;23;1271862;-79
2024/04/03 07:17:49;;;;;;;6.95;1.90;;;;;;;;;;12641638;23;20034;-77
2024/04/03 07:22:50;;;;;;;2.95;1.20;;;;;;;;;;12641806;23;19999;-77
2024/04/03 07:27:52;;;;;;;3.00;1.20;;;;;;;;;;12639729;23;20037;-80
2024/04/03 07:33:08;;;;;;;2.90;1.20;;;;;;;;;;12637819;23;20034;-78
2024/04/03 07:38:12;;;;;;;6.30;2.88;;;;;;;;;;12639910;23;20002;-78
2024/04/03 07:43:13;;;;;;;3.55;1.23;;;;;;;;;;12634967;23;20007;-78
2024/04/03 07:48:14;;;;;;;;;;;;;;;;;;12632761;23;20037;-78
2024/04/03 07:53:15;;;;;;;2.90;1.27;;;;;;;;;;12632946;23;19953;-78
2024/04/03 07:58:16;;;;;;;;;;;;;;;;;;12633309;23;20006;-77
2024/04/03 08:03:17;;;;;;;4.13;1.23;;;;;;;;;;12627754;23;19940;-78
2024/04/03 08:08:18;;;;;;;;;;;;;;;;;;12626646;23;20016;-78
2024/04/03 08:13:19;;;;;;;3.17;1.27;;;;;;;;;;12629149;23;19940;-77
2024/04/03 08:18:20;;;;;;;;;;;;;;;;;;12638455;23;20070;-77
2024/04/03 08:23:21;;;;;;;3.58;1.20;;;;;;;;;;12633072;23;19902;-77
2024/04/03 08:28:23;;;;;;;2.80;1.20;;;;;;;;;;12636323;23;20002;-77
2024/04/03 08:33:24;;;;;;;4.03;1.90;;;;;;;;;;12627278;23;20496;-79
2024/04/03 08:38:25;;;;;;;;;;;;;;;;;;12630702;23;20006;-83
2024/04/03 08:43:26;;;;;;;3.03;1.25;;;;;;;;;;12630870;23;19907;-78
2024/04/03 08:48:29;;;;;;;3.17;1.17;;;;;;;;;;12631598;23;20007;-78
2024/04/03 08:53:30;;;;;;;4.32;1.40;;;;;;;;;;12629991;23;20007;-79
2024/04/03 08:58:34;;;;;;;3.03;1.20;;;;;;;;;;12628729;23;20017;-82
2024/04/03 09:03:35;;;;;;;3.80;1.50;;;;;;;;;;12633033;23;20010;-79
2024/04/03 09:08:36;;;;;;;;;;;;;;;;;;12635687;23;20070;-79
2024/04/03 09:13:39;;;;;;;3.45;1.20;;;;;;;;;;12635656;23;19920;-81
2024/04/03 09:18:40;;;;;;;2.45;1.30;;;;;;;;;;12640422;23;20003;-79
2024/04/03 09:23:41;;;;;;;2.42;1.15;;;;;;;;;;12640430;23;20006;-80
2024/04/03 09:28:43;;;;;;;3.28;1.45;;;;;;;;;;12646528;23;20099;-81
2024/04/03 09:33:44;;;;;;;3.28;1.23;;;;;;;;;;12641109;23;20409;-79
2024/04/03 09:38:46;;;;;;;2.85;1.15;;;;;;;;;;12633586;23;20002;-80
2024/04/03 09:43:48;;;;;;;2.95;1.58;;;;;;;;;;12630220;23;20021;-80
2024/04/03 09:48:50;;;;;;;4.60;1.30;;;;;;;;;;12631114;23;20010;-81
2024/04/03 09:53:52;;;;;;;2.20;0.93;;;;;;;;;;12631517;23;20014;-80
2024/04/03 09:58:53;;;;;;;3.25;1.27;;;;;;;;;;12629355;23;20372;-81
2024/04/03 10:03:54;;;;;;;;;;;;;;;;;;12627956;23;20325;-80
2024/04/03 10:08:55;;;;;;;2.63;1.25;;;;;;;;;;12629965;23;19905;-80
2024/04/03 10:13:56;;;;;;;;;;;;;;;;;;12632438;23;20041;-79
2024/04/03 10:18:57;;;;;;;2.35;1.15;;;;;;;;;;12645123;23;19905;-80
2024/04/03 10:24:00;;;;;;;2.15;1.00;;;;;;;;;;12641082;23;20010;-79
2024/04/03 10:29:04;;;;;;;2.35;1.00;;;;;;;;;;12645921;23;20014;-80
2024/04/03 10:34:05;;;;;;;2.35;1.08;;;;;;;;;;12632025;23;20126;-78
2024/04/03 10:39:06;;;;;;;;;;;;;;;;;;12635587;23;20022;-78
2024/04/03 10:44:10;;;;;;;6.85;5.00;;;;;;;;;;12639116;23;19921;-77
2024/04/03 10:49:11;;;;;;;2.38;0.98;;;;;;;;;;12638235;23;20342;-80
2024/04/03 10:54:14;;;;;;;;;;;;;;;;;;12635167;23;20008;-78
2024/04/03 10:59:15;;;;;;;2.58;1.05;;;;;;;;;;12633986;23;19902;-81
2024/04/03 11:04:18;;;;;;;1.90;1.00;;;;;;;;;;12631251;23;20011;-78
2024/04/03 11:09:25;;;;;;;1.90;0.88;;;;;;;;;;12630584;23;20010;-78
2024/04/03 11:14:27;;;;;;;2.08;0.70;;;;;;;;;;12631804;23;20025;-78
2024/04/03 11:19:28;;;;;;;;;;;;;;;;;;12639343;23;20062;-77
2024/04/03 11:24:29;;;;;;;2.63;0.90;;;;;;;;;;12637166;23;19909;-78
2024/04/03 11:29:31;;;;;;;2.80;0.90;;;;;;;;;;12633061;23;20011;-79
2024/04/03 11:34:32;;;;;;;3.55;1.50;;;;;;;;;;12630852;23;20345;-80
2024/04/03 11:39:33;;;;;;;;;;;;;;;;;;12631528;23;20002;-80
2024/04/03 11:44:35;;;;;;;1.88;0.77;;;;;;;;;;12630503;23;20320;-79
2024/04/03 11:49:38;;;;;;;1.55;0.75;;;;;;;;;;12645539;23;20017;-78
2024/04/03 11:54:40;;;;;;;1.48;0.65;;;;;;;;;;12645103;23;19999;-79
2024/04/03 11:59:41;;;;;;;2.55;0.77;;;;;;;;;;12632879;23;20062;-79
2024/04/03 12:04:42;;;;;;;;;;;;;;;;;;12634285;23;20006;-78
2024/04/03 12:09:43;;;;;;;1.55;0.60;;;;;;;;;;12634250;23;20254;-79
2024/04/03 12:14:45;;;;;;;1.85;0.77;;;;;;;;;;12610082;23;20042;-80
2024/04/03 12:19:52;;;;;;;1.27;0.77;;;;;;;;;;12633148;23;20006;-79
2024/04/03 12:24:58;;;;;;;2.42;0.80;;;;;;;;;;12633915;23;20006;-79
2024/04/03 12:30:00;;;;;;;0.80;0.60;;;;;;;;;;12629796;23;20007;-80
2024/04/03 12:35:02;;;;;;;2.25;0.70;;;;;;;;;;12628494;23;20002;-79
2024/04/03 12:40:03;;;;;;;1.33;0.90;;;;;;;;;;12632694;23;20018;-79
2024/04/03 12:45:04;;;;;;;2.00;0.60;;;;;;;;;;12635214;23;20026;-79
2024/04/03 12:50:05;;;;;;;2.55;1.00;;;;;;;;;;12639370;23;20007;-79
2024/04/03 12:55:06;;;;;;;1.10;0.50;;;;;;;;;;12639962;23;20074;-79
2024/04/03 13:00:08;;;;;;;0.85;0.52;;;;;;;;;;12647498;23;20010;-78
2024/04/03 13:05:11;;;;;;;2.13;0.52;;;;;;;;;;12636725;23;20006;-79
2024/04/03 13:10:14;;;;;;;1.20;0.50;;;;;;;;;;12634971;23;20479;-79
2024/04/03 14:06:25;;;;;;;1.50;1.02;;;;;;;;;;12633305;23;20026;-84
2024/04/03 14:12:22;;;;;;;0.82;0.55;;;;;;;;;;12612226;23;20022;-84
2024/04/03 14:40:20;;;;;;;1.15;0.80;;;;;;;;;;12630693;23;20010;-84
2024/04/03 14:56:48;;;;;;;2.08;0.80;;;;;;;;;;12632593;23;20006;-84
2024/04/03 15:02:12;;;;;;;1.17;0.70;;;;;;;;;;12634137;23;20002;-85
2024/04/03 16:10:49;;;;;;;1.05;0.60;;;;;;;;;;12637494;23;20100;-84
2024/04/03 16:16:13;;;;;;;0.65;0.50;;;;;;;;;;12633269;23;20070;-82
2024/04/03 16:21:17;;;;;;;1.60;0.60;;;;;;;;;;12626763;23;20057;-84
